sensor_id;sensor_type;location;lat;lon;timestamp;temperature;humidity
296;DHT22;132;48.770;9.200;2023-08-30T00:01:40;13.50;1.00
296;DHT22;132;48.770;9.200;2023-08-30T00:04:26;13.50;1.00
296;DHT22;132;48.770;9.200;2023-08-30T00:07:13;13.50;1.00
296;DHT22;132;48.770;9.200;2023-08-30T00:09:59;13.50;1.00
296;DHT22;132;48.770;9.200;2023-08-30T00:12:46;13.50;1.00
296;DHT22;132;48.770;9.200;2023-08-30T00:15:33;13.50;1.00
296;DHT22;132;48.770;9.200;2023-08-30T00:18:19;13.50;1.00
296;DHT22;132;48.770;9.200;2023-08-30T00:21:06;13.60;1.00
296;DHT22;132;48.770;9.200;2023-08-30T00:23:53;13.50;1.00
296;DHT22;132;48.770;9.200;2023-08-30T00:26:39;13.70;1.00
296;DHT22;132;48.770;9.200;2023-08-30T00:29:27;13.60;1.00
296;DHT22;132;48.770;9.200;2023-08-30T00:32:14;13.60;1.00
296;DHT22;132;48.770;9.200;2023-08-30T00:35:01;13.60;1.00
296;DHT22;132;48.770;9.200;2023-08-30T00:37:48;13.60;1.00
296;DHT22;132;48.770;9.200;2023-08-30T00:40:40;13.60;1.00
296;DHT22;132;48.770;9.200;2023-08-30T00:43:27;13.70;1.00
296;DHT22;132;48.770;9.200;2023-08-30T00:46:15;13.70;1.00
296;DHT22;132;48.770;9.200;2023-08-30T00:49:02;13.70;1.00
296;DHT22;132;48.770;9.200;2023-08-30T00:51:51;13.60;1.00
296;DHT22;132;48.770;9.200;2023-08-30T00:54:39;13.60;1.00
296;DHT22;132;48.770;9.200;2023-08-30T00:57:25;13.60;1.00
296;DHT22;132;48.770;9.200;2023-08-30T01:00:12;13.60;1.00
296;DHT22;132;48.770;9.200;2023-08-30T01:03:01;13.60;1.00
296;DHT22;132;48.770;9.200;2023-08-30T01:05:47;13.60;1.00
296;DHT22;132;48.770;9.200;2023-08-30T01:08:35;13.50;1.00
296;DHT22;132;48.770;9.200;2023-08-30T01:11:52;13.80;1.00
296;DHT22;132;48.770;9.200;2023-08-30T01:14:48;13.60;1.00
296;DHT22;132;48.770;9.200;2023-08-30T01:17:42;13.50;1.00
296;DHT22;132;48.770;9.200;2023-08-30T01:20:34;13.60;1.00
296;DHT22;132;48.770;9.200;2023-08-30T01:23:47;13.50;1.00
296;DHT22;132;48.770;9.200;2023-08-30T01:26:42;13.50;1.00
296;DHT22;132;48.770;9.200;2023-08-30T01:29:32;13.50;1.00
296;DHT22;132;48.770;9.200;2023-08-30T01:32:19;13.50;1.00
296;DHT22;132;48.770;9.200;2023-08-30T01:35:07;13.50;1.00
296;DHT22;132;48.770;9.200;2023-08-30T01:37:54;13.40;1.00
296;DHT22;132;48.770;9.200;2023-08-30T01:40:42;13.40;1.00
296;DHT22;132;48.770;9.200;2023-08-30T01:43:30;13.40;1.00
296;DHT22;132;48.770;9.200;2023-08-30T01:46:18;13.30;1.00
296;DHT22;132;48.770;9.200;2023-08-30T01:49:06;13.30;1.00
296;DHT22;132;48.770;9.200;2023-08-30T01:51:54;13.30;1.00
296;DHT22;132;48.770;9.200;2023-08-30T01:54:41;13.30;1.00
296;DHT22;132;48.770;9.200;2023-08-30T01:57:28;13.20;1.00
296;DHT22;132;48.770;9.200;2023-08-30T02:00:15;13.20;1.00
296;DHT22;132;48.770;9.200;2023-08-30T02:03:09;13.20;1.00
296;DHT22;132;48.770;9.200;2023-08-30T02:09:04;13.10;1.00
296;DHT22;132;48.770;9.200;2023-08-30T02:11:57;13.10;1.00
296;DHT22;132;48.770;9.200;2023-08-30T02:14:48;13.10;1.00
296;DHT22;132;48.770;9.200;2023-08-30T02:17:37;13.30;1.00
296;DHT22;132;48.770;9.200;2023-08-30T02:20:25;13.00;1.00
296;DHT22;132;48.770;9.200;2023-08-30T02:23:12;13.10;1.00
296;DHT22;132;48.770;9.200;2023-08-30T02:25:59;13.00;1.00
296;DHT22;132;48.770;9.200;2023-08-30T02:28:46;13.10;1.00
296;DHT22;132;48.770;9.200;2023-08-30T02:31:33;13.00;1.00
296;DHT22;132;48.770;9.200;2023-08-30T02:34:19;13.10;1.00
296;DHT22;132;48.770;9.200;2023-08-30T02:37:06;13.10;1.00
296;DHT22;132;48.770;9.200;2023-08-30T02:39:52;13.10;1.00
296;DHT22;132;48.770;9.200;2023-08-30T02:42:39;13.10;1.00
296;DHT22;132;48.770;9.200;2023-08-30T02:45:26;13.10;1.00
296;DHT22;132;48.770;9.200;2023-08-30T02:48:13;13.20;1.00
296;DHT22;132;48.770;9.200;2023-08-30T02:51:01;13.10;1.00
296;DHT22;132;48.770;9.200;2023-08-30T02:53:48;13.10;1.00
296;DHT22;132;48.770;9.200;2023-08-30T02:56:34;13.10;1.00
296;DHT22;132;48.770;9.200;2023-08-30T02:59:21;13.00;1.00
296;DHT22;132;48.770;9.200;2023-08-30T03:02:08;13.00;1.00
296;DHT22;132;48.770;9.200;2023-08-30T03:04:54;13.00;1.00
296;DHT22;132;48.770;9.200;2023-08-30T03:07:42;13.00;1.00
296;DHT22;132;48.770;9.200;2023-08-30T03:10:29;12.90;1.00
296;DHT22;132;48.770;9.200;2023-08-30T03:13:15;12.90;1.00
296;DHT22;132;48.770;9.200;2023-08-30T03:16:11;12.80;1.00
296;DHT22;132;48.770;9.200;2023-08-30T03:18:58;12.90;1.00
296;DHT22;132;48.770;9.200;2023-08-30T03:21:44;12.80;1.00
296;DHT22;132;48.770;9.200;2023-08-30T03:24:31;12.90;1.00
296;DHT22;132;48.770;9.200;2023-08-30T03:27:18;12.70;1.00
296;DHT22;132;48.770;9.200;2023-08-30T03:30:07;12.70;1.00
296;DHT22;132;48.770;9.200;2023-08-30T03:32:54;12.70;1.00
296;DHT22;132;48.770;9.200;2023-08-30T03:35:41;12.70;1.00
296;DHT22;132;48.770;9.200;2023-08-30T03:38:28;12.90;1.00
296;DHT22;132;48.770;9.200;2023-08-30T03:41:14;12.70;1.00
296;DHT22;132;48.770;9.200;2023-08-30T03:44:03;12.70;1.00
296;DHT22;132;48.770;9.200;2023-08-30T03:46:50;12.70;1.00
296;DHT22;132;48.770;9.200;2023-08-30T03:49:36;12.70;1.00
296;DHT22;132;48.770;9.200;2023-08-30T03:52:23;12.70;1.00
296;DHT22;132;48.770;9.200;2023-08-30T03:55:09;12.80;1.00
296;DHT22;132;48.770;9.200;2023-08-30T03:57:56;12.80;1.00
296;DHT22;132;48.770;9.200;2023-08-30T04:00:43;12.80;1.00
296;DHT22;132;48.770;9.200;2023-08-30T04:03:30;12.90;1.00
296;DHT22;132;48.770;9.200;2023-08-30T04:06:17;12.90;1.00
296;DHT22;132;48.770;9.200;2023-08-30T04:09:04;12.90;1.00
296;DHT22;132;48.770;9.200;2023-08-30T04:11:50;13.00;1.00
296;DHT22;132;48.770;9.200;2023-08-30T04:14:37;13.10;1.00
296;DHT22;132;48.770;9.200;2023-08-30T04:17:24;13.00;1.00
296;DHT22;132;48.770;9.200;2023-08-30T04:20:11;13.00;1.00
296;DHT22;132;48.770;9.200;2023-08-30T04:22:57;13.00;1.00
296;DHT22;132;48.770;9.200;2023-08-30T04:25:45;13.00;1.00
296;DHT22;132;48.770;9.200;2023-08-30T04:28:31;13.10;1.00
296;DHT22;132;48.770;9.200;2023-08-30T04:31:18;13.10;1.00
296;DHT22;132;48.770;9.200;2023-08-30T04:34:05;13.10;1.00
296;DHT22;132;48.770;9.200;2023-08-30T04:36:51;13.10;1.00
296;DHT22;132;48.770;9.200;2023-08-30T04:39:38;13.10;1.00
296;DHT22;132;48.770;9.200;2023-08-30T04:42:25;13.10;1.00
296;DHT22;132;48.770;9.200;2023-08-30T04:45:11;13.10;1.00
296;DHT22;132;48.770;9.200;2023-08-30T04:47:58;13.10;1.00
296;DHT22;132;48.770;9.200;2023-08-30T04:50:46;13.20;1.00
296;DHT22;132;48.770;9.200;2023-08-30T04:53:33;13.20;1.00
296;DHT22;132;48.770;9.200;2023-08-30T04:56:20;13.20;1.00
296;DHT22;132;48.770;9.200;2023-08-30T04:59:06;13.20;1.00
296;DHT22;132;48.770;9.200;2023-08-30T05:01:53;13.30;1.00
296;DHT22;132;48.770;9.200;2023-08-30T05:04:47;13.40;1.00
296;DHT22;132;48.770;9.200;2023-08-30T05:07:34;13.40;1.00
296;DHT22;132;48.770;9.200;2023-08-30T05:10:21;13.40;1.00
296;DHT22;132;48.770;9.200;2023-08-30T05:13:07;13.30;1.00
296;DHT22;132;48.770;9.200;2023-08-30T05:15:54;13.30;1.00
296;DHT22;132;48.770;9.200;2023-08-30T05:18:40;13.40;1.00
296;DHT22;132;48.770;9.200;2023-08-30T05:21:27;13.40;1.00
296;DHT22;132;48.770;9.200;2023-08-30T05:24:13;13.40;1.00
296;DHT22;132;48.770;9.200;2023-08-30T05:27:00;13.50;1.00
296;DHT22;132;48.770;9.200;2023-08-30T05:29:47;13.50;1.00
296;DHT22;132;48.770;9.200;2023-08-30T05:32:34;13.50;1.00
296;DHT22;132;48.770;9.200;2023-08-30T05:35:41;13.50;1.00
296;DHT22;132;48.770;9.200;2023-08-30T05:38:46;13.50;1.00
296;DHT22;132;48.770;9.200;2023-08-30T05:41:56;13.60;1.00
296;DHT22;132;48.770;9.200;2023-08-30T05:44:42;13.60;1.00
296;DHT22;132;48.770;9.200;2023-08-30T05:47:29;13.80;1.00
296;DHT22;132;48.770;9.200;2023-08-30T05:50:16;13.70;1.00
296;DHT22;132;48.770;9.200;2023-08-30T05:53:03;13.70;1.00
296;DHT22;132;48.770;9.200;2023-08-30T05:55:50;13.70;1.00
296;DHT22;132;48.770;9.200;2023-08-30T05:58:37;13.70;1.00
296;DHT22;132;48.770;9.200;2023-08-30T06:01:24;13.70;1.00
296;DHT22;132;48.770;9.200;2023-08-30T06:04:11;13.80;1.00
296;DHT22;132;48.770;9.200;2023-08-30T06:06:57;13.90;1.00
296;DHT22;132;48.770;9.200;2023-08-30T06:09:44;13.90;1.00
296;DHT22;132;48.770;9.200;2023-08-30T06:12:31;14.00;1.00
296;DHT22;132;48.770;9.200;2023-08-30T06:15:17;14.00;1.00
296;DHT22;132;48.770;9.200;2023-08-30T06:18:04;14.20;1.00
296;DHT22;132;48.770;9.200;2023-08-30T06:20:51;14.10;1.00
296;DHT22;132;48.770;9.200;2023-08-30T06:23:38;14.20;1.00
296;DHT22;132;48.770;9.200;2023-08-30T06:26:24;14.20;1.00
296;DHT22;132;48.770;9.200;2023-08-30T06:29:11;14.20;1.00
296;DHT22;132;48.770;9.200;2023-08-30T06:31:58;14.30;1.00
296;DHT22;132;48.770;9.200;2023-08-30T06:34:45;14.30;1.00
296;DHT22;132;48.770;9.200;2023-08-30T06:37:31;14.40;1.00
296;DHT22;132;48.770;9.200;2023-08-30T06:40:18;14.40;1.00
296;DHT22;132;48.770;9.200;2023-08-30T06:43:04;14.50;1.00
296;DHT22;132;48.770;9.200;2023-08-30T06:45:51;14.40;1.00
296;DHT22;132;48.770;9.200;2023-08-30T06:48:39;14.50;1.00
296;DHT22;132;48.770;9.200;2023-08-30T06:51:26;14.50;1.00
296;DHT22;132;48.770;9.200;2023-08-30T06:54:12;14.60;1.00
296;DHT22;132;48.770;9.200;2023-08-30T06:57:00;14.60;1.00
296;DHT22;132;48.770;9.200;2023-08-30T06:59:47;14.70;1.00
296;DHT22;132;48.770;9.200;2023-08-30T07:02:36;14.60;1.00
296;DHT22;132;48.770;9.200;2023-08-30T07:05:23;14.70;1.00
296;DHT22;132;48.770;9.200;2023-08-30T07:08:10;14.70;1.00
296;DHT22;132;48.770;9.200;2023-08-30T07:10:56;14.80;1.00
296;DHT22;132;48.770;9.200;2023-08-30T07:13:43;14.80;1.00
296;DHT22;132;48.770;9.200;2023-08-30T07:16:30;14.90;1.00
296;DHT22;132;48.770;9.200;2023-08-30T07:19:18;14.90;1.00
296;DHT22;132;48.770;9.200;2023-08-30T07:22:04;14.70;1.00
296;DHT22;132;48.770;9.200;2023-08-30T07:24:51;14.70;1.00
296;DHT22;132;48.770;9.200;2023-08-30T07:27:37;14.80;1.00
296;DHT22;132;48.770;9.200;2023-08-30T07:30:24;14.80;1.00
296;DHT22;132;48.770;9.200;2023-08-30T07:33:11;14.80;1.00
296;DHT22;132;48.770;9.200;2023-08-30T07:35:57;14.80;1.00
296;DHT22;132;48.770;9.200;2023-08-30T07:38:44;14.80;1.00
296;DHT22;132;48.770;9.200;2023-08-30T07:41:33;14.70;1.00
296;DHT22;132;48.770;9.200;2023-08-30T07:44:20;14.80;1.00
296;DHT22;132;48.770;9.200;2023-08-30T07:47:06;15.00;1.00
296;DHT22;132;48.770;9.200;2023-08-30T07:49:53;14.90;1.00
296;DHT22;132;48.770;9.200;2023-08-30T07:52:39;15.00;1.00
296;DHT22;132;48.770;9.200;2023-08-30T07:55:26;15.10;1.00
296;DHT22;132;48.770;9.200;2023-08-30T07:58:12;15.10;1.00
296;DHT22;132;48.770;9.200;2023-08-30T08:00:59;15.10;1.00
296;DHT22;132;48.770;9.200;2023-08-30T08:03:46;15.20;1.00
296;DHT22;132;48.770;9.200;2023-08-30T08:06:33;15.30;1.00
296;DHT22;132;48.770;9.200;2023-08-30T08:09:20;15.30;1.00
296;DHT22;132;48.770;9.200;2023-08-30T08:12:08;15.30;1.00
296;DHT22;132;48.770;9.200;2023-08-30T08:14:54;15.40;1.00
296;DHT22;132;48.770;9.200;2023-08-30T08:17:41;15.50;1.00
296;DHT22;132;48.770;9.200;2023-08-30T08:20:29;15.60;1.00
296;DHT22;132;48.770;9.200;2023-08-30T08:23:15;15.60;1.00
296;DHT22;132;48.770;9.200;2023-08-30T08:26:02;15.60;1.00
296;DHT22;132;48.770;9.200;2023-08-30T08:28:49;15.50;1.00
296;DHT22;132;48.770;9.200;2023-08-30T08:31:35;15.50;1.00
296;DHT22;132;48.770;9.200;2023-08-30T08:34:22;15.50;1.00
296;DHT22;132;48.770;9.200;2023-08-30T08:37:09;15.50;1.00
296;DHT22;132;48.770;9.200;2023-08-30T08:39:55;15.70;1.00
296;DHT22;132;48.770;9.200;2023-08-30T08:42:42;15.70;1.00
296;DHT22;132;48.770;9.200;2023-08-30T08:45:29;15.80;1.00
296;DHT22;132;48.770;9.200;2023-08-30T08:48:17;16.10;1.00
296;DHT22;132;48.770;9.200;2023-08-30T08:51:05;16.00;1.00
296;DHT22;132;48.770;9.200;2023-08-30T08:53:54;16.20;1.00
296;DHT22;132;48.770;9.200;2023-08-30T08:56:47;16.40;1.00
296;DHT22;132;48.770;9.200;2023-08-30T08:59:33;16.60;1.00
296;DHT22;132;48.770;9.200;2023-08-30T09:02:20;16.80;1.00
296;DHT22;132;48.770;9.200;2023-08-30T09:05:08;17.10;1.00
296;DHT22;132;48.770;9.200;2023-08-30T09:07:55;17.40;1.00
296;DHT22;132;48.770;9.200;2023-08-30T09:10:42;17.60;1.00
296;DHT22;132;48.770;9.200;2023-08-30T09:13:28;17.80;1.00
296;DHT22;132;48.770;9.200;2023-08-30T09:16:17;18.00;1.00
296;DHT22;132;48.770;9.200;2023-08-30T09:19:04;18.20;1.00
296;DHT22;132;48.770;9.200;2023-08-30T09:21:55;18.40;1.00
296;DHT22;132;48.770;9.200;2023-08-30T09:24:42;18.40;1.00
296;DHT22;132;48.770;9.200;2023-08-30T09:27:35;19.00;1.00
296;DHT22;132;48.770;9.200;2023-08-30T09:30:22;19.90;1.00
296;DHT22;132;48.770;9.200;2023-08-30T09:33:09;20.40;1.00
296;DHT22;132;48.770;9.200;2023-08-30T09:35:56;21.00;1.00
296;DHT22;132;48.770;9.200;2023-08-30T09:38:48;21.10;1.00
296;DHT22;132;48.770;9.200;2023-08-30T09:41:48;21.80;1.00
296;DHT22;132;48.770;9.200;2023-08-30T09:44:35;22.20;1.00
296;DHT22;132;48.770;9.200;2023-08-30T09:47:24;22.50;1.00
296;DHT22;132;48.770;9.200;2023-08-30T09:50:20;22.70;1.00
296;DHT22;132;48.770;9.200;2023-08-30T09:53:09;22.70;1.00
296;DHT22;132;48.770;9.200;2023-08-30T09:55:58;22.80;1.00
296;DHT22;132;48.770;9.200;2023-08-30T09:58:46;23.30;1.00
296;DHT22;132;48.770;9.200;2023-08-30T10:01:33;23.90;1.00
296;DHT22;132;48.770;9.200;2023-08-30T10:04:21;23.80;1.00
296;DHT22;132;48.770;9.200;2023-08-30T10:07:08;23.90;1.00
296;DHT22;132;48.770;9.200;2023-08-30T10:09:56;24.40;1.00
296;DHT22;132;48.770;9.200;2023-08-30T10:12:46;24.50;1.00
296;DHT22;132;48.770;9.200;2023-08-30T10:15:34;24.70;1.00
296;DHT22;132;48.770;9.200;2023-08-30T10:18:23;24.50;1.00
296;DHT22;132;48.770;9.200;2023-08-30T10:21:12;24.10;1.00
296;DHT22;132;48.770;9.200;2023-08-30T10:23:59;24.40;1.00
296;DHT22;132;48.770;9.200;2023-08-30T10:26:48;24.90;1.00
296;DHT22;132;48.770;9.200;2023-08-30T10:29:37;25.00;1.00
296;DHT22;132;48.770;9.200;2023-08-30T10:32:24;25.10;1.00
296;DHT22;132;48.770;9.200;2023-08-30T10:35:12;25.20;1.00
296;DHT22;132;48.770;9.200;2023-08-30T10:38:00;25.50;1.00
296;DHT22;132;48.770;9.200;2023-08-30T10:40:47;25.30;1.00
296;DHT22;132;48.770;9.200;2023-08-30T10:43:35;24.80;1.00
296;DHT22;132;48.770;9.200;2023-08-30T10:46:32;24.60;1.00
296;DHT22;132;48.770;9.200;2023-08-30T10:49:19;25.10;1.00
296;DHT22;132;48.770;9.200;2023-08-30T10:52:05;25.30;1.00
296;DHT22;132;48.770;9.200;2023-08-30T10:55:14;25.20;1.00
296;DHT22;132;48.770;9.200;2023-08-30T10:58:03;24.10;1.00
296;DHT22;132;48.770;9.200;2023-08-30T11:00:51;24.30;1.00
296;DHT22;132;48.770;9.200;2023-08-30T11:03:37;24.90;1.00
296;DHT22;132;48.770;9.200;2023-08-30T11:06:24;25.30;1.00
296;DHT22;132;48.770;9.200;2023-08-30T11:09:13;25.10;1.00
296;DHT22;132;48.770;9.200;2023-08-30T11:12:04;24.70;1.00
296;DHT22;132;48.770;9.200;2023-08-30T11:14:52;24.60;1.00
296;DHT22;132;48.770;9.200;2023-08-30T11:17:41;24.80;1.00
296;DHT22;132;48.770;9.200;2023-08-30T11:20:28;25.40;1.00
296;DHT22;132;48.770;9.200;2023-08-30T11:23:15;25.90;1.00
296;DHT22;132;48.770;9.200;2023-08-30T11:26:01;26.40;1.00
296;DHT22;132;48.770;9.200;2023-08-30T11:28:50;27.00;1.00
296;DHT22;132;48.770;9.200;2023-08-30T11:31:39;27.60;1.00
296;DHT22;132;48.770;9.200;2023-08-30T11:34:26;27.30;1.00
296;DHT22;132;48.770;9.200;2023-08-30T11:37:13;26.80;1.00
296;DHT22;132;48.770;9.200;2023-08-30T11:40:02;26.10;1.00
296;DHT22;132;48.770;9.200;2023-08-30T11:42:49;25.10;1.00
296;DHT22;132;48.770;9.200;2023-08-30T11:45:36;24.40;1.00
296;DHT22;132;48.770;9.200;2023-08-30T11:48:23;23.70;1.00
296;DHT22;132;48.770;9.200;2023-08-30T11:51:10;22.90;1.00
296;DHT22;132;48.770;9.200;2023-08-30T11:54:00;22.00;1.00
296;DHT22;132;48.770;9.200;2023-08-30T11:56:50;21.40;1.00
296;DHT22;132;48.770;9.200;2023-08-30T11:59:36;20.80;1.00
296;DHT22;132;48.770;9.200;2023-08-30T12:02:23;20.40;1.00
296;DHT22;132;48.770;9.200;2023-08-30T12:05:13;20.00;1.00
296;DHT22;132;48.770;9.200;2023-08-30T12:08:00;19.50;1.00
296;DHT22;132;48.770;9.200;2023-08-30T12:10:47;19.10;1.00
296;DHT22;132;48.770;9.200;2023-08-30T12:13:34;18.80;1.00
296;DHT22;132;48.770;9.200;2023-08-30T12:16:21;18.40;1.00
296;DHT22;132;48.770;9.200;2023-08-30T12:19:09;18.30;1.00
296;DHT22;132;48.770;9.200;2023-08-30T12:22:05;18.10;1.00
296;DHT22;132;48.770;9.200;2023-08-30T12:24:52;18.00;1.00
296;DHT22;132;48.770;9.200;2023-08-30T12:27:39;17.70;1.00
296;DHT22;132;48.770;9.200;2023-08-30T12:30:26;17.40;1.00
296;DHT22;132;48.770;9.200;2023-08-30T12:33:16;17.20;1.00
296;DHT22;132;48.770;9.200;2023-08-30T12:36:03;17.00;1.00
296;DHT22;132;48.770;9.200;2023-08-30T12:38:50;16.80;1.00
296;DHT22;132;48.770;9.200;2023-08-30T12:41:36;16.90;1.00
296;DHT22;132;48.770;9.200;2023-08-30T12:44:23;17.00;1.00
296;DHT22;132;48.770;9.200;2023-08-30T12:47:10;17.10;1.00
296;DHT22;132;48.770;9.200;2023-08-30T12:50:00;17.40;1.00
296;DHT22;132;48.770;9.200;2023-08-30T12:52:46;17.30;1.00
296;DHT22;132;48.770;9.200;2023-08-30T12:55:33;17.20;1.00
296;DHT22;132;48.770;9.200;2023-08-30T12:58:22;17.20;1.00
296;DHT22;132;48.770;9.200;2023-08-30T13:01:10;17.30;1.00
296;DHT22;132;48.770;9.200;2023-08-30T13:03:56;17.30;1.00
296;DHT22;132;48.770;9.200;2023-08-30T13:06:43;17.40;1.00
296;DHT22;132;48.770;9.200;2023-08-30T13:09:29;17.60;1.00
296;DHT22;132;48.770;9.200;2023-08-30T13:12:16;17.90;1.00
296;DHT22;132;48.770;9.200;2023-08-30T13:15:04;18.00;1.00
296;DHT22;132;48.770;9.200;2023-08-30T13:17:50;18.20;1.00
296;DHT22;132;48.770;9.200;2023-08-30T13:20:39;18.60;1.00
296;DHT22;132;48.770;9.200;2023-08-30T13:23:26;18.70;1.00
296;DHT22;132;48.770;9.200;2023-08-30T13:26:12;18.90;1.00
296;DHT22;132;48.770;9.200;2023-08-30T13:28:59;19.20;1.00
296;DHT22;132;48.770;9.200;2023-08-30T13:31:48;19.30;1.00
296;DHT22;132;48.770;9.200;2023-08-30T13:34:35;19.40;1.00
296;DHT22;132;48.770;9.200;2023-08-30T13:37:21;19.60;1.00
296;DHT22;132;48.770;9.200;2023-08-30T13:40:10;19.80;1.00
296;DHT22;132;48.770;9.200;2023-08-30T13:42:57;20.00;1.00
296;DHT22;132;48.770;9.200;2023-08-30T13:45:43;20.20;1.00
296;DHT22;132;48.770;9.200;2023-08-30T13:48:33;20.60;1.00
296;DHT22;132;48.770;9.200;2023-08-30T13:51:23;21.00;1.00
296;DHT22;132;48.770;9.200;2023-08-30T13:54:10;21.20;1.00
296;DHT22;132;48.770;9.200;2023-08-30T13:56:57;21.40;1.00
296;DHT22;132;48.770;9.200;2023-08-30T13:59:44;21.50;1.00
296;DHT22;132;48.770;9.200;2023-08-30T14:02:31;21.60;1.00
296;DHT22;132;48.770;9.200;2023-08-30T14:05:18;21.70;1.00
296;DHT22;132;48.770;9.200;2023-08-30T14:08:05;21.70;1.00
296;DHT22;132;48.770;9.200;2023-08-30T14:10:52;21.60;1.00
296;DHT22;132;48.770;9.200;2023-08-30T14:13:38;21.40;1.00
296;DHT22;132;48.770;9.200;2023-08-30T14:16:25;21.10;1.00
296;DHT22;132;48.770;9.200;2023-08-30T14:19:11;21.00;1.00
296;DHT22;132;48.770;9.200;2023-08-30T14:21:58;20.90;1.00
296;DHT22;132;48.770;9.200;2023-08-30T14:24:45;20.70;1.00
296;DHT22;132;48.770;9.200;2023-08-30T14:27:32;20.60;1.00
296;DHT22;132;48.770;9.200;2023-08-30T14:30:19;20.50;1.00
296;DHT22;132;48.770;9.200;2023-08-30T14:33:05;20.40;1.00
296;DHT22;132;48.770;9.200;2023-08-30T14:35:52;20.30;1.00
296;DHT22;132;48.770;9.200;2023-08-30T14:38:39;20.30;1.00
296;DHT22;132;48.770;9.200;2023-08-30T14:41:27;20.20;1.00
296;DHT22;132;48.770;9.200;2023-08-30T14:44:14;20.00;1.00
296;DHT22;132;48.770;9.200;2023-08-30T14:47:01;19.80;1.00
296;DHT22;132;48.770;9.200;2023-08-30T14:49:47;19.60;1.00
296;DHT22;132;48.770;9.200;2023-08-30T14:52:34;19.40;1.00
296;DHT22;132;48.770;9.200;2023-08-30T14:55:21;19.30;1.00
296;DHT22;132;48.770;9.200;2023-08-30T14:58:07;19.20;1.00
296;DHT22;132;48.770;9.200;2023-08-30T15:00:54;19.30;1.00
296;DHT22;132;48.770;9.200;2023-08-30T15:03:40;19.00;1.00
296;DHT22;132;48.770;9.200;2023-08-30T15:06:27;18.90;1.00
296;DHT22;132;48.770;9.200;2023-08-30T15:09:14;18.80;1.00
296;DHT22;132;48.770;9.200;2023-08-30T15:12:02;18.80;1.00
296;DHT22;132;48.770;9.200;2023-08-30T15:14:49;18.90;1.00
296;DHT22;132;48.770;9.200;2023-08-30T15:17:36;19.00;1.00
296;DHT22;132;48.770;9.200;2023-08-30T15:20:23;19.00;1.00
296;DHT22;132;48.770;9.200;2023-08-30T15:23:11;19.00;1.00
296;DHT22;132;48.770;9.200;2023-08-30T15:26:04;19.10;1.00
296;DHT22;132;48.770;9.200;2023-08-30T15:28:51;19.20;1.00
296;DHT22;132;48.770;9.200;2023-08-30T15:31:38;19.30;1.00
296;DHT22;132;48.770;9.200;2023-08-30T15:34:24;19.40;1.00
296;DHT22;132;48.770;9.200;2023-08-30T15:37:11;19.50;1.00
296;DHT22;132;48.770;9.200;2023-08-30T15:40:02;19.60;1.00
296;DHT22;132;48.770;9.200;2023-08-30T15:42:52;19.70;1.00
296;DHT22;132;48.770;9.200;2023-08-30T15:45:38;19.60;1.00
296;DHT22;132;48.770;9.200;2023-08-30T15:48:25;19.50;1.00
296;DHT22;132;48.770;9.200;2023-08-30T15:51:11;19.50;1.00
296;DHT22;132;48.770;9.200;2023-08-30T15:53:59;19.30;1.00
296;DHT22;132;48.770;9.200;2023-08-30T15:56:46;19.30;1.00
296;DHT22;132;48.770;9.200;2023-08-30T15:59:32;19.20;1.00
296;DHT22;132;48.770;9.200;2023-08-30T16:02:19;19.30;1.00
296;DHT22;132;48.770;9.200;2023-08-30T16:05:06;19.40;1.00
296;DHT22;132;48.770;9.200;2023-08-30T16:07:52;19.50;1.00
296;DHT22;132;48.770;9.200;2023-08-30T16:10:39;19.50;1.00
296;DHT22;132;48.770;9.200;2023-08-30T16:13:26;19.50;1.00
296;DHT22;132;48.770;9.200;2023-08-30T16:16:12;19.50;1.00
296;DHT22;132;48.770;9.200;2023-08-30T16:18:59;19.50;1.00
296;DHT22;132;48.770;9.200;2023-08-30T16:21:46;19.50;1.00
296;DHT22;132;48.770;9.200;2023-08-30T16:24:38;19.30;1.00
296;DHT22;132;48.770;9.200;2023-08-30T16:27:25;19.30;1.00
296;DHT22;132;48.770;9.200;2023-08-30T16:30:12;19.20;1.00
296;DHT22;132;48.770;9.200;2023-08-30T16:32:58;19.10;1.00
296;DHT22;132;48.770;9.200;2023-08-30T16:35:45;19.00;1.00
296;DHT22;132;48.770;9.200;2023-08-30T16:38:32;18.90;1.00
296;DHT22;132;48.770;9.200;2023-08-30T16:41:19;18.90;1.00
296;DHT22;132;48.770;9.200;2023-08-30T16:44:06;18.80;1.00
296;DHT22;132;48.770;9.200;2023-08-30T16:46:52;18.90;1.00
296;DHT22;132;48.770;9.200;2023-08-30T16:49:39;18.80;1.00
296;DHT22;132;48.770;9.200;2023-08-30T16:52:26;18.80;1.00
296;DHT22;132;48.770;9.200;2023-08-30T16:55:12;19.00;1.00
296;DHT22;132;48.770;9.200;2023-08-30T16:57:59;18.90;1.00
296;DHT22;132;48.770;9.200;2023-08-30T17:00:45;18.90;1.00
296;DHT22;132;48.770;9.200;2023-08-30T17:03:32;18.90;1.00
296;DHT22;132;48.770;9.200;2023-08-30T17:06:18;18.80;1.00
296;DHT22;132;48.770;9.200;2023-08-30T17:09:05;18.80;1.00
296;DHT22;132;48.770;9.200;2023-08-30T17:11:52;18.80;1.00
296;DHT22;132;48.770;9.200;2023-08-30T17:14:39;18.60;1.00
296;DHT22;132;48.770;9.200;2023-08-30T17:17:26;18.60;1.00
296;DHT22;132;48.770;9.200;2023-08-30T17:20:12;18.50;1.00
296;DHT22;132;48.770;9.200;2023-08-30T17:22:59;18.40;1.00
296;DHT22;132;48.770;9.200;2023-08-30T17:25:47;18.30;1.00
296;DHT22;132;48.770;9.200;2023-08-30T17:28:35;18.40;1.00
296;DHT22;132;48.770;9.200;2023-08-30T17:31:24;18.10;1.00
296;DHT22;132;48.770;9.200;2023-08-30T17:34:12;18.00;1.00
296;DHT22;132;48.770;9.200;2023-08-30T17:36:59;17.90;1.00
296;DHT22;132;48.770;9.200;2023-08-30T17:39:46;17.90;1.00
296;DHT22;132;48.770;9.200;2023-08-30T17:42:32;17.80;1.00
296;DHT22;132;48.770;9.200;2023-08-30T17:45:19;17.70;1.00
296;DHT22;132;48.770;9.200;2023-08-30T17:48:06;17.70;1.00
296;DHT22;132;48.770;9.200;2023-08-30T17:50:52;17.60;1.00
296;DHT22;132;48.770;9.200;2023-08-30T17:53:39;17.50;1.00
296;DHT22;132;48.770;9.200;2023-08-30T17:56:26;17.50;1.00
296;DHT22;132;48.770;9.200;2023-08-30T17:59:13;17.40;1.00
296;DHT22;132;48.770;9.200;2023-08-30T18:02:00;17.30;1.00
296;DHT22;132;48.770;9.200;2023-08-30T18:04:46;17.20;1.00
296;DHT22;132;48.770;9.200;2023-08-30T18:07:35;17.20;1.00
296;DHT22;132;48.770;9.200;2023-08-30T18:10:22;17.20;1.00
296;DHT22;132;48.770;9.200;2023-08-30T18:13:09;17.10;1.00
296;DHT22;132;48.770;9.200;2023-08-30T18:15:56;17.00;1.00
296;DHT22;132;48.770;9.200;2023-08-30T18:18:42;17.10;1.00
296;DHT22;132;48.770;9.200;2023-08-30T18:21:29;16.90;1.00
296;DHT22;132;48.770;9.200;2023-08-30T18:24:19;16.80;1.00
296;DHT22;132;48.770;9.200;2023-08-30T18:27:06;16.80;1.00
296;DHT22;132;48.770;9.200;2023-08-30T18:29:52;16.90;1.00
296;DHT22;132;48.770;9.200;2023-08-30T18:32:39;16.60;1.00
296;DHT22;132;48.770;9.200;2023-08-30T18:35:25;16.60;1.00
296;DHT22;132;48.770;9.200;2023-08-30T18:38:13;16.50;1.00
296;DHT22;132;48.770;9.200;2023-08-30T18:40:59;16.50;1.00
296;DHT22;132;48.770;9.200;2023-08-30T18:43:46;16.40;1.00
296;DHT22;132;48.770;9.200;2023-08-30T18:46:33;16.40;1.00
296;DHT22;132;48.770;9.200;2023-08-30T18:49:19;16.40;1.00
296;DHT22;132;48.770;9.200;2023-08-30T18:52:07;16.30;1.00
296;DHT22;132;48.770;9.200;2023-08-30T18:54:54;16.30;1.00
296;DHT22;132;48.770;9.200;2023-08-30T18:57:41;16.30;1.00
296;DHT22;132;48.770;9.200;2023-08-30T19:00:27;16.30;1.00
296;DHT22;132;48.770;9.200;2023-08-30T19:03:14;16.40;1.00
296;DHT22;132;48.770;9.200;2023-08-30T19:06:00;16.40;1.00
296;DHT22;132;48.770;9.200;2023-08-30T19:08:47;16.50;1.00
296;DHT22;132;48.770;9.200;2023-08-30T19:11:37;16.50;1.00
296;DHT22;132;48.770;9.200;2023-08-30T19:14:23;16.60;1.00